sensor_id;sensor_type;location;lat;lon;timestamp;temperature;humidity
21590;DHT22;10957;50.968;6.828;2022-10-22T00:03:45;15.60;99.90
21590;DHT22;10957;50.968;6.828;2022-10-22T00:08:45;15.20;99.90
21590;DHT22;10957;50.968;6.828;2022-10-22T00:13:47;15.40;99.90
21590;DHT22;10957;50.968;6.828;2022-10-22T00:18:47;15.50;99.90
21590;DHT22;10957;50.968;6.828;2022-10-22T00:23:48;15.60;99.90
21590;DHT22;10957;50.968;6.828;2022-10-22T00:28:49;15.40;99.90
21590;DHT22;10957;50.968;6.828;2022-10-22T00:33:50;15.40;99.90
21590;DHT22;10957;50.968;6.828;2022-10-22T00:38:50;15.80;99.90
21590;DHT22;10957;50.968;6.828;2022-10-22T00:43:57;15.60;99.90
21590;DHT22;10957;50.968;6.828;2022-10-22T00:49:00;15.90;99.90
21590;DHT22;10957;50.968;6.828;2022-10-22T00:54:04;15.90;99.90
21590;DHT22;10957;50.968;6.828;2022-10-22T00:59:07;15.90;99.90
21590;DHT22;10957;50.968;6.828;2022-10-22T01:04:08;15.90;99.90
21590;DHT22;10957;50.968;6.828;2022-10-22T01:09:28;16.10;99.90
21590;DHT22;10957;50.968;6.828;2022-10-22T01:25:07;16.10;99.90
21590;DHT22;10957;50.968;6.828;2022-10-22T01:30:13;16.30;99.90
21590;DHT22;10957;50.968;6.828;2022-10-22T01:35:18;16.30;99.90
21590;DHT22;10957;50.968;6.828;2022-10-22T01:40:20;15.70;99.90
21590;DHT22;10957;50.968;6.828;2022-10-22T01:45:22;16.30;99.90
21590;DHT22;10957;50.968;6.828;2022-10-22T01:56:11;16.10;99.90
21590;DHT22;10957;50.968;6.828;2022-10-22T02:01:25;16.20;99.90
21590;DHT22;10957;50.968;6.828;2022-10-22T02:06:30;16.00;99.90
21590;DHT22;10957;50.968;6.828;2022-10-22T02:11:32;15.60;99.90
21590;DHT22;10957;50.968;6.828;2022-10-22T02:16:37;16.00;99.90
21590;DHT22;10957;50.968;6.828;2022-10-22T02:21:39;15.90;99.90
21590;DHT22;10957;50.968;6.828;2022-10-22T02:26:53;16.00;99.90
21590;DHT22;10957;50.968;6.828;2022-10-22T02:32:00;16.10;99.90
21590;DHT22;10957;50.968;6.828;2022-10-22T02:37:03;16.10;99.90
21590;DHT22;10957;50.968;6.828;2022-10-22T02:42:05;15.90;99.90
21590;DHT22;10957;50.968;6.828;2022-10-22T02:47:05;15.30;99.90
21590;DHT22;10957;50.968;6.828;2022-10-22T02:52:06;15.80;99.90
21590;DHT22;10957;50.968;6.828;2022-10-22T02:57:07;15.50;99.90
21590;DHT22;10957;50.968;6.828;2022-10-22T03:02:08;15.90;99.90
21590;DHT22;10957;50.968;6.828;2022-10-22T03:07:09;15.30;99.90
21590;DHT22;10957;50.968;6.828;2022-10-22T03:12:09;15.40;99.90
21590;DHT22;10957;50.968;6.828;2022-10-22T03:17:10;15.50;99.90
21590;DHT22;10957;50.968;6.828;2022-10-22T03:22:22;15.20;99.90
21590;DHT22;10957;50.968;6.828;2022-10-22T03:27:25;15.30;99.90
21590;DHT22;10957;50.968;6.828;2022-10-22T03:32:27;15.50;99.90
21590;DHT22;10957;50.968;6.828;2022-10-22T03:37:28;15.50;99.90
21590;DHT22;10957;50.968;6.828;2022-10-22T03:42:29;15.50;99.90
21590;DHT22;10957;50.968;6.828;2022-10-22T03:47:30;15.70;99.90
21590;DHT22;10957;50.968;6.828;2022-10-22T03:52:36;15.90;99.90
21590;DHT22;10957;50.968;6.828;2022-10-22T03:57:37;15.80;99.90
21590;DHT22;10957;50.968;6.828;2022-10-22T04:02:37;15.40;99.90
21590;DHT22;10957;50.968;6.828;2022-10-22T04:07:38;15.80;99.90
21590;DHT22;10957;50.968;6.828;2022-10-22T04:12:39;15.70;99.90
21590;DHT22;10957;50.968;6.828;2022-10-22T04:17:39;15.30;99.90
21590;DHT22;10957;50.968;6.828;2022-10-22T04:22:40;15.40;99.90
21590;DHT22;10957;50.968;6.828;2022-10-22T04:27:41;15.70;99.90
21590;DHT22;10957;50.968;6.828;2022-10-22T04:32:42;15.10;99.90
21590;DHT22;10957;50.968;6.828;2022-10-22T04:37:42;15.20;99.90
21590;DHT22;10957;50.968;6.828;2022-10-22T04:42:43;14.80;99.90
21590;DHT22;10957;50.968;6.828;2022-10-22T04:47:43;15.50;99.90
21590;DHT22;10957;50.968;6.828;2022-10-22T04:52:44;15.60;99.90
21590;DHT22;10957;50.968;6.828;2022-10-22T04:57:45;15.40;99.90
21590;DHT22;10957;50.968;6.828;2022-10-22T05:02:50;14.80;99.90
21590;DHT22;10957;50.968;6.828;2022-10-22T05:07:51;14.70;99.90
21590;DHT22;10957;50.968;6.828;2022-10-22T05:12:51;15.10;99.90
21590;DHT22;10957;50.968;6.828;2022-10-22T05:17:52;15.50;99.90
21590;DHT22;10957;50.968;6.828;2022-10-22T05:22:53;15.30;99.90
21590;DHT22;10957;50.968;6.828;2022-10-22T05:27:53;15.30;99.90
21590;DHT22;10957;50.968;6.828;2022-10-22T05:32:54;15.40;99.90
21590;DHT22;10957;50.968;6.828;2022-10-22T05:37:55;15.20;99.90
21590;DHT22;10957;50.968;6.828;2022-10-22T05:42:55;15.30;99.90
21590;DHT22;10957;50.968;6.828;2022-10-22T05:47:57;15.10;99.90
21590;DHT22;10957;50.968;6.828;2022-10-22T05:52:58;15.10;99.90
21590;DHT22;10957;50.968;6.828;2022-10-22T05:57:59;14.90;99.90
21590;DHT22;10957;50.968;6.828;2022-10-22T06:02:59;15.30;99.90
21590;DHT22;10957;50.968;6.828;2022-10-22T06:08:01;15.00;99.90
21590;DHT22;10957;50.968;6.828;2022-10-22T06:13:01;15.20;99.90
21590;DHT22;10957;50.968;6.828;2022-10-22T06:18:02;15.10;99.90
21590;DHT22;10957;50.968;6.828;2022-10-22T06:23:03;15.30;99.90
21590;DHT22;10957;50.968;6.828;2022-10-22T06:28:04;15.20;99.90
21590;DHT22;10957;50.968;6.828;2022-10-22T06:33:04;15.00;99.90
21590;DHT22;10957;50.968;6.828;2022-10-22T06:38:05;14.80;99.90
21590;DHT22;10957;50.968;6.828;2022-10-22T06:43:06;15.60;99.90
21590;DHT22;10957;50.968;6.828;2022-10-22T06:48:06;15.40;99.90
21590;DHT22;10957;50.968;6.828;2022-10-22T06:53:07;15.00;99.90
21590;DHT22;10957;50.968;6.828;2022-10-22T06:58:08;15.50;99.90
21590;DHT22;10957;50.968;6.828;2022-10-22T07:03:11;15.40;99.90
21590;DHT22;10957;50.968;6.828;2022-10-22T07:08:13;15.50;99.90
21590;DHT22;10957;50.968;6.828;2022-10-22T07:13:13;15.70;99.90
21590;DHT22;10957;50.968;6.828;2022-10-22T07:18:15;15.70;99.90
21590;DHT22;10957;50.968;6.828;2022-10-22T07:23:16;15.80;99.90
21590;DHT22;10957;50.968;6.828;2022-10-22T07:28:17;15.70;99.90
21590;DHT22;10957;50.968;6.828;2022-10-22T07:33:18;15.80;99.90
21590;DHT22;10957;50.968;6.828;2022-10-22T07:38:18;16.40;99.90
21590;DHT22;10957;50.968;6.828;2022-10-22T07:48:42;16.70;99.90
21590;DHT22;10957;50.968;6.828;2022-10-22T07:53:43;16.20;99.90
21590;DHT22;10957;50.968;6.828;2022-10-22T07:58:44;16.40;99.90
21590;DHT22;10957;50.968;6.828;2022-10-22T08:03:44;16.90;99.90
21590;DHT22;10957;50.968;6.828;2022-10-22T08:08:45;17.40;99.90
21590;DHT22;10957;50.968;6.828;2022-10-22T08:13:46;17.10;99.90
21590;DHT22;10957;50.968;6.828;2022-10-22T08:18:46;17.40;99.90
21590;DHT22;10957;50.968;6.828;2022-10-22T08:23:47;17.20;99.90
21590;DHT22;10957;50.968;6.828;2022-10-22T08:28:48;17.00;99.90
21590;DHT22;10957;50.968;6.828;2022-10-22T08:33:49;17.00;99.90
21590;DHT22;10957;50.968;6.828;2022-10-22T08:38:49;17.20;99.90
21590;DHT22;10957;50.968;6.828;2022-10-22T08:44:03;17.40;99.90
21590;DHT22;10957;50.968;6.828;2022-10-22T08:49:23;17.30;99.90
21590;DHT22;10957;50.968;6.828;2022-10-22T08:54:36;17.00;99.90
21590;DHT22;10957;50.968;6.828;2022-10-22T08:59:46;17.00;99.90
21590;DHT22;10957;50.968;6.828;2022-10-22T09:04:55;17.10;99.90
21590;DHT22;10957;50.968;6.828;2022-10-22T09:09:59;16.50;99.90
21590;DHT22;10957;50.968;6.828;2022-10-22T09:15:01;16.60;99.90
21590;DHT22;10957;50.968;6.828;2022-10-22T09:20:26;16.50;99.90
21590;DHT22;10957;50.968;6.828;2022-10-22T09:25:30;16.20;99.90
21590;DHT22;10957;50.968;6.828;2022-10-22T09:30:35;16.20;99.90
21590;DHT22;10957;50.968;6.828;2022-10-22T09:35:49;16.10;99.90
21590;DHT22;10957;50.968;6.828;2022-10-22T09:40:53;16.20;99.90
21590;DHT22;10957;50.968;6.828;2022-10-22T09:45:57;16.20;99.90
21590;DHT22;10957;50.968;6.828;2022-10-22T09:51:18;16.10;99.90
21590;DHT22;10957;50.968;6.828;2022-10-22T09:56:35;16.00;99.90
21590;DHT22;10957;50.968;6.828;2022-10-22T10:01:38;15.90;99.90
21590;DHT22;10957;50.968;6.828;2022-10-22T10:06:42;15.90;99.90
21590;DHT22;10957;50.968;6.828;2022-10-22T10:11:58;15.40;99.90
21590;DHT22;10957;50.968;6.828;2022-10-22T10:17:12;15.80;99.90
21590;DHT22;10957;50.968;6.828;2022-10-22T10:22:40;15.70;99.90
21590;DHT22;10957;50.968;6.828;2022-10-22T10:27:48;15.80;99.90
21590;DHT22;10957;50.968;6.828;2022-10-22T10:33:12;15.70;99.90
21590;DHT22;10957;50.968;6.828;2022-10-22T10:49:09;15.70;99.90
21590;DHT22;10957;50.968;6.828;2022-10-22T10:59:30;15.40;99.90
21590;DHT22;10957;50.968;6.828;2022-10-22T11:15:33;15.90;99.90
21590;DHT22;10957;50.968;6.828;2022-10-22T11:20:43;15.90;99.90
21590;DHT22;10957;50.968;6.828;2022-10-22T11:25:48;15.90;99.90
21590;DHT22;10957;50.968;6.828;2022-10-22T11:30:59;16.00;99.90
21590;DHT22;10957;50.968;6.828;2022-10-22T11:36:03;16.00;99.90
21590;DHT22;10957;50.968;6.828;2022-10-22T11:41:10;15.80;99.90
21590;DHT22;10957;50.968;6.828;2022-10-22T11:56:37;15.80;99.90
21590;DHT22;10957;50.968;6.828;2022-10-22T12:01:40;15.50;99.90
21590;DHT22;10957;50.968;6.828;2022-10-22T12:07:01;16.00;99.90
21590;DHT22;10957;50.968;6.828;2022-10-22T12:12:12;16.30;99.90
21590;DHT22;10957;50.968;6.828;2022-10-22T12:17:14;16.40;99.90
21590;DHT22;10957;50.968;6.828;2022-10-22T12:27:25;16.70;99.90
21590;DHT22;10957;50.968;6.828;2022-10-22T12:32:37;16.80;99.90
21590;DHT22;10957;50.968;6.828;2022-10-22T12:37:38;16.90;99.90
21590;DHT22;10957;50.968;6.828;2022-10-22T12:42:38;17.00;99.90
21590;DHT22;10957;50.968;6.828;2022-10-22T12:47:47;17.40;99.90
21590;DHT22;10957;50.968;6.828;2022-10-22T12:52:49;17.70;99.90
21590;DHT22;10957;50.968;6.828;2022-10-22T12:57:53;17.60;99.90
21590;DHT22;10957;50.968;6.828;2022-10-22T13:03:04;17.60;99.90
21590;DHT22;10957;50.968;6.828;2022-10-22T13:08:11;17.70;90.30
21590;DHT22;10957;50.968;6.828;2022-10-22T13:13:32;17.50;94.90
21590;DHT22;10957;50.968;6.828;2022-10-22T13:18:33;17.20;93.90
21590;DHT22;10957;50.968;6.828;2022-10-22T13:23:33;17.50;91.60
21590;DHT22;10957;50.968;6.828;2022-10-22T13:28:34;17.40;95.60
21590;DHT22;10957;50.968;6.828;2022-10-22T13:33:38;17.50;90.60
21590;DHT22;10957;50.968;6.828;2022-10-22T13:38:41;17.50;90.40
21590;DHT22;10957;50.968;6.828;2022-10-22T13:43:42;17.60;86.10
21590;DHT22;10957;50.968;6.828;2022-10-22T13:48:44;17.70;90.20
21590;DHT22;10957;50.968;6.828;2022-10-22T13:53:46;17.60;92.70
21590;DHT22;10957;50.968;6.828;2022-10-22T13:58:47;17.50;91.60
21590;DHT22;10957;50.968;6.828;2022-10-22T14:03:50;17.40;95.30
21590;DHT22;10957;50.968;6.828;2022-10-22T14:09:04;17.80;90.80
21590;DHT22;10957;50.968;6.828;2022-10-22T14:14:05;17.70;79.70
21590;DHT22;10957;50.968;6.828;2022-10-22T14:19:14;17.40;93.40
21590;DHT22;10957;50.968;6.828;2022-10-22T14:24:16;17.20;99.90
21590;DHT22;10957;50.968;6.828;2022-10-22T14:29:16;17.20;99.90
21590;DHT22;10957;50.968;6.828;2022-10-22T14:34:17;17.10;99.90
21590;DHT22;10957;50.968;6.828;2022-10-22T14:39:18;17.10;99.90
21590;DHT22;10957;50.968;6.828;2022-10-22T14:44:18;17.00;99.90
21590;DHT22;10957;50.968;6.828;2022-10-22T14:49:19;17.10;99.90
21590;DHT22;10957;50.968;6.828;2022-10-22T14:54:20;17.10;99.90
21590;DHT22;10957;50.968;6.828;2022-10-22T14:59:20;17.20;99.90
21590;DHT22;10957;50.968;6.828;2022-10-22T15:04:21;17.30;99.90
21590;DHT22;10957;50.968;6.828;2022-10-22T15:09:23;17.20;99.90
21590;DHT22;10957;50.968;6.828;2022-10-22T15:14:24;17.00;99.90
21590;DHT22;10957;50.968;6.828;2022-10-22T15:19:25;17.00;99.90
21590;DHT22;10957;50.968;6.828;2022-10-22T15:24:26;17.00;99.90
21590;DHT22;10957;50.968;6.828;2022-10-22T15:29:26;16.90;99.90
21590;DHT22;10957;50.968;6.828;2022-10-22T15:34:30;16.60;99.90
21590;DHT22;10957;50.968;6.828;2022-10-22T15:39:31;16.40;99.90
21590;DHT22;10957;50.968;6.828;2022-10-22T15:44:32;16.30;99.90
21590;DHT22;10957;50.968;6.828;2022-10-22T15:49:35;16.20;99.90
21590;DHT22;10957;50.968;6.828;2022-10-22T15:54:37;16.20;99.90
21590;DHT22;10957;50.968;6.828;2022-10-22T15:59:37;15.80;99.90
21590;DHT22;10957;50.968;6.828;2022-10-22T16:04:38;15.70;99.90
21590;DHT22;10957;50.968;6.828;2022-10-22T16:09:39;15.80;99.90
21590;DHT22;10957;50.968;6.828;2022-10-22T16:14:40;15.80;99.90
21590;DHT22;10957;50.968;6.828;2022-10-22T16:19:40;15.60;99.90
21590;DHT22;10957;50.968;6.828;2022-10-22T16:24:41;15.20;99.90
21590;DHT22;10957;50.968;6.828;2022-10-22T16:29:42;15.20;99.90
21590;DHT22;10957;50.968;6.828;2022-10-22T16:34:43;15.10;99.90
21590;DHT22;10957;50.968;6.828;2022-10-22T16:39:44;15.00;99.90
21590;DHT22;10957;50.968;6.828;2022-10-22T16:44:45;14.50;99.90
21590;DHT22;10957;50.968;6.828;2022-10-22T16:49:46;14.90;99.90
21590;DHT22;10957;50.968;6.828;2022-10-22T16:54:46;14.50;99.90
21590;DHT22;10957;50.968;6.828;2022-10-22T16:59:47;14.80;99.90
21590;DHT22;10957;50.968;6.828;2022-10-22T17:04:48;15.30;99.90
21590;DHT22;10957;50.968;6.828;2022-10-22T17:09:49;14.70;99.90
21590;DHT22;10957;50.968;6.828;2022-10-22T17:14:49;14.60;99.90
21590;DHT22;10957;50.968;6.828;2022-10-22T17:19:50;15.00;99.90
21590;DHT22;10957;50.968;6.828;2022-10-22T17:25:07;14.70;99.90
21590;DHT22;10957;50.968;6.828;2022-10-22T17:30:16;14.90;99.90
21590;DHT22;10957;50.968;6.828;2022-10-22T17:35:17;15.00;99.90
21590;DHT22;10957;50.968;6.828;2022-10-22T17:40:18;14.80;99.90
21590;DHT22;10957;50.968;6.828;2022-10-22T17:45:19;14.80;99.90
21590;DHT22;10957;50.968;6.828;2022-10-22T17:50:19;14.20;99.90
21590;DHT22;10957;50.968;6.828;2022-10-22T17:55:20;14.30;99.90
21590;DHT22;10957;50.968;6.828;2022-10-22T18:00:21;14.50;99.90
21590;DHT22;10957;50.968;6.828;2022-10-22T18:05:23;14.60;99.90
21590;DHT22;10957;50.968;6.828;2022-10-22T18:10:24;14.20;99.90
21590;DHT22;10957;50.968;6.828;2022-10-22T18:15:25;14.80;99.90
21590;DHT22;10957;50.968;6.828;2022-10-22T18:20:25;14.60;99.90
21590;DHT22;10957;50.968;6.828;2022-10-22T18:25:26;14.70;99.90
21590;DHT22;10957;50.968;6.828;2022-10-22T18:30:27;14.00;99.90
21590;DHT22;10957;50.968;6.828;2022-10-22T18:35:31;14.20;99.90
21590;DHT22;10957;50.968;6.828;2022-10-22T18:40:32;13.70;99.90
21590;DHT22;10957;50.968;6.828;2022-10-22T18:45:32;13.70;99.90
21590;DHT22;10957;50.968;6.828;2022-10-22T18:50:33;13.90;99.90
21590;DHT22;10957;50.968;6.828;2022-10-22T18:55:37;14.10;99.90
21590;DHT22;10957;50.968;6.828;2022-10-22T19:00:38;13.90;99.90
21590;DHT22;10957;50.968;6.828;2022-10-22T19:05:47;14.00;99.90
21590;DHT22;10957;50.968;6.828;2022-10-22T19:10:48;13.90;99.90
21590;DHT22;10957;50.968;6.828;2022-10-22T19:15:49;13.40;99.90
21590;DHT22;10957;50.968;6.828;2022-10-22T19:20:56;13.50;99.90
21590;DHT22;10957;50.968;6.828;2022-10-22T19:31:13;13.80;99.90
21590;DHT22;10957;50.968;6.828;2022-10-22T19:36:17;13.60;99.90
21590;DHT22;10957;50.968;6.828;2022-10-22T19:41:20;13.90;99.90
21590;DHT22;10957;50.968;6.828;2022-10-22T19:46:22;13.10;99.90
21590;DHT22;10957;50.968;6.828;2022-10-22T19:51:25;13.60;99.90
21590;DHT22;10957;50.968;6.828;2022-10-22T19:56:27;13.60;99.90
21590;DHT22;10957;50.968;6.828;2022-10-22T20:01:28;13.50;99.90
21590;DHT22;10957;50.968;6.828;2022-10-22T20:06:31;13.60;99.90
21590;DHT22;10957;50.968;6.828;2022-10-22T20:11:31;13.10;99.90
21590;DHT22;10957;50.968;6.828;2022-10-22T20:16:32;13.50;99.90
21590;DHT22;10957;50.968;6.828;2022-10-22T20:21:35;13.70;99.90
21590;DHT22;10957;50.968;6.828;2022-10-22T20:26:36;13.30;99.90
21590;DHT22;10957;50.968;6.828;2022-10-22T20:31:37;13.70;99.90
21590;DHT22;10957;50.968;6.828;2022-10-22T20:36:38;13.40;99.90
21590;DHT22;10957;50.968;6.828;2022-10-22T20:41:39;13.30;99.90
21590;DHT22;10957;50.968;6.828;2022-10-22T20:46:41;13.90;99.90
21590;DHT22;10957;50.968;6.828;2022-10-22T20:51:42;13.70;99.90
21590;DHT22;10957;50.968;6.828;2022-10-22T20:56:43;13.60;99.90
21590;DHT22;10957;50.968;6.828;2022-10-22T21:01:50;13.70;99.90
21590;DHT22;10957;50.968;6.828;2022-10-22T21:06:51;13.80;99.90
21590;DHT22;10957;50.968;6.828;2022-10-22T21:11:53;13.50;99.90
21590;DHT22;10957;50.968;6.828;2022-10-22T21:16:54;13.60;99.90
21590;DHT22;10957;50.968;6.828;2022-10-22T21:21:55;13.70;99.90
21590;DHT22;10957;50.968;6.828;2022-10-22T21:26:59;13.80;99.90
21590;DHT22;10957;50.968;6.828;2022-10-22T21:31:59;13.60;99.90
21590;DHT22;10957;50.968;6.828;2022-10-22T21:37:00;13.30;99.90
21590;DHT22;10957;50.968;6.828;2022-10-22T21:42:01;13.10;99.90
21590;DHT22;10957;50.968;6.828;2022-10-22T21:47:02;13.30;99.90
21590;DHT22;10957;50.968;6.828;2022-10-22T21:52:04;13.50;99.90
21590;DHT22;10957;50.968;6.828;2022-10-22T21:57:06;13.50;99.90
21590;DHT22;10957;50.968;6.828;2022-10-22T22:02:07;13.40;99.90
21590;DHT22;10957;50.968;6.828;2022-10-22T22:07:08;13.30;99.90
21590;DHT22;10957;50.968;6.828;2022-10-22T22:12:08;13.50;99.90
21590;DHT22;10957;50.968;6.828;2022-10-22T22:17:09;13.00;99.90
21590;DHT22;10957;50.968;6.828;2022-10-22T22:22:13;13.50;99.90
21590;DHT22;10957;50.968;6.828;2022-10-22T22:27:14;13.50;99.90
21590;DHT22;10957;50.968;6.828;2022-10-22T22:32:16;13.30;99.90
21590;DHT22;10957;50.968;6.828;2022-10-22T22:37:17;13.30;99.90
21590;DHT22;10957;50.968;6.828;2022-10-22T22:42:18;13.20;99.90
21590;DHT22;10957;50.968;6.828;2022-10-22T22:47:18;13.30;99.90
21590;DHT22;10957;50.968;6.828;2022-10-22T22:52:19;12.90;99.90
21590;DHT22;10957;50.968;6.828;2022-10-22T22:57:20;13.20;99.90
21590;DHT22;10957;50.968;6.828;2022-10-22T23:02:20;13.40;99.90
21590;DHT22;10957;50.968;6.828;2022-10-22T23:07:21;13.10;99.90
21590;DHT22;10957;50.968;6.828;2022-10-22T23:12:25;13.60;99.90
21590;DHT22;10957;50.968;6.828;2022-10-22T23:17:25;13.20;99.90
21590;DHT22;10957;50.968;6.828;2022-10-22T23:22:26;13.20;99.90
21590;DHT22;10957;50.968;6.828;2022-10-22T23:27:27;13.10;99.90
21590;DHT22;10957;50.968;6.828;2022-10-22T23:32:28;13.10;99.90
21590;DHT22;10957;50.968;6.828;2022-10-22T23:37:28;13.40;99.90
21590;DHT22;10957;50.968;6.828;2022-10-22T23:42:29;13.30;99.90
21590;DHT22;10957;50.968;6.828;2022-10-22T23:47:30;12.70;99.90
21590;DHT22;10957;50.968;6.828;2022-10-22T23:52:31;12.80;99.90
21590;DHT22;10957;50.968;6.828;2022-10-22T23:57:31;12.90;99.90
